Terminal Aerodrome Forecast
Issued by NWS

Home | Current Version | Previous Version | Text Only | Print | Product List | Glossary On
Versions: 1 2 3 4 5 6 7 8 9 10 11 12 13 14
000
FTUS45 KMSO 021726
TAFSMN
TAF
KSMN 021726Z 0218/0318 VRB03KT P6SM SCT150
     FM030200 04012KT 2SM -SN BR OVC025
     FM030600 03012KT 4SM -SHSN BKN030
     FM030900 03015G20KT P6SM VCSH BKN040
      AMD LTD TO CLD VIS AND WIND=

USA.gov is the U.S. government's official web portal to all federal, state and local government web resources and services.